Главная страница
METAR-TAF:

METAR-TAF

Аэропорты :

Сенендедж, Иран

широта: 35-20N, долгота: 047-00E, высота над уровнем моря: 1373 м

Текущие метеонаблюдения

Эта сводка был подготовлена 34 минут назад, в 01:30 UTC
Штиль
Температура 6°C
Влажность 93%
Давление 1011 hPa
Видимость: 8000 м
небольшая облачность на высоте 3000 фута
небольшая облачность на высоте 3500 фута, Кучево-дождевые.
Рассеянная облачность на высоте 4000 фута

METAR: OICS 100130Z 00000KT 8000 FEW030 FEW035CB BKN040 06/05 Q1011

Время: 06:34 (02:04 UTC)


TAF: отсутствует

Метеонаблюдения и прогнозы для более 4000 аэропортов (сводки METAR и TAF).

Имеющиеся станции представлены на карте желтыми и красными точками.

Чтобы увидеть название станции, наведите на нее мышь.

Затем щелкните, чтобы увидеть метеонаблюдения и метеопрогнозы.

Управление картой: чтобы увеличить масштаб, щелкните зеленые кнопки с черным крестиком; чтобы уменьшить масштаб, щелкните зеленую кнопку с тире; для просмотра соседних карт щелкайте зеленые стрелки.


METAR-TAF: